Time;durP1;ratioP1;P1;durP2;ratioP2;P2;SDS_P1;SDS_P2;PMS_P1;PMS_P2;Temp;Humidity;BMP_temperature;BMP_pressure;BME280_temperature;BME280_humidity;BME280_pressure;Samples;Min_cycle;Max_cycle;Signal;HPM_P1;HPM_P2
2023/01/09 06:26:29;;;;;;;2.00;0.40;;;;;;;3.98;100.00;94933.22;4912760;29;20043;-92
2023/01/09 06:29:00;;;;;;;0.40;0.30;;;;;;;3.86;100.00;94934.44;4877979;29;20064;-96
2023/01/09 06:32:28;;;;;;;1.80;0.30;;;;;;;3.85;100.00;94943.19;4894141;29;20051;-96
2023/01/09 06:34:55;;;;;;;1.07;0.23;;;;;;;3.91;100.00;94945.19;4871775;29;20065;-95
2023/01/09 06:38:02;;;;;;;0.93;0.50;;;;;;;3.87;100.00;94936.06;4877883;29;20040;-96
2023/01/09 06:40:46;;;;;;;6.07;2.17;;;;;;;3.90;100.00;94953.16;4871896;29;20040;-94
2023/01/09 06:43:12;;;;;;;0.40;0.30;;;;;;;3.84;100.00;94945.94;4885703;29;20099;-94
2023/01/09 06:45:41;;;;;;;2.47;0.50;;;;;;;3.77;100.00;94951.72;4886133;29;20515;-95
2023/01/09 06:48:33;;;;;;;0.37;0.20;;;;;;;3.73;100.00;94960.00;4885357;29;20028;-93
2023/01/09 06:50:59;;;;;;;3.93;1.47;;;;;;;3.70;100.00;94950.69;4891834;29;20047;-95
2023/01/09 06:53:40;;;;;;;3.10;1.10;;;;;;;3.69;100.00;94956.03;4899054;29;20131;-94
2023/01/09 06:56:06;;;;;;;0.60;0.30;;;;;;;3.63;100.00;94954.88;4915085;29;20048;-96
2023/01/09 07:02:21;;;;;;;1.73;0.40;;;;;;;3.54;100.00;94942.75;4932211;29;20541;-96
2023/01/09 07:04:47;;;;;;;1.43;0.60;;;;;;;3.50;100.00;94949.22;4913701;29;20040;-96
2023/01/09 07:11:00;;;;;;;8.27;3.93;;;;;;;3.39;100.00;94960.63;4928463;29;20538;-96
2023/01/09 07:17:13;;;;;;;0.60;0.47;;;;;;;3.30;100.00;94961.50;4929851;29;20096;-96
2023/01/09 07:19:39;;;;;;;1.23;0.20;;;;;;;3.29;100.00;94962.47;4912239;29;20040;-96
2023/01/09 07:22:05;;;;;;;1.40;0.47;;;;;;;3.24;100.00;94951.69;4897046;29;20044;-96
2023/01/09 07:24:31;;;;;;;2.00;0.40;;;;;;;3.26;100.00;94960.16;4897518;29;20036;-96
2023/01/09 07:26:57;;;;;;;5.50;0.60;;;;;;;3.22;100.00;94964.00;4897608;29;20068;-96
2023/01/09 07:29:23;;;;;;;1.07;0.40;;;;;;;3.21;100.00;94975.34;4896547;29;20130;-96
2023/01/09 07:31:49;;;;;;;0.20;0.13;;;;;;;3.21;100.00;94965.78;4896954;29;20047;-96
2023/01/09 07:34:15;;;;;;;1.63;0.30;;;;;;;3.20;100.00;94960.75;4897275;29;20384;-96
2023/01/09 07:36:43;;;;;;;1.53;0.57;;;;;;;3.20;100.00;94958.16;4897673;29;20134;-96
2023/01/09 07:39:09;;;;;;;2.63;0.63;;;;;;;3.21;100.00;94965.78;4897369;29;20024;-95
2023/01/09 07:41:35;;;;;;;2.23;0.40;;;;;;;3.23;100.00;94971.66;4896962;29;20043;-96
2023/01/09 07:44:01;;;;;;;2.20;0.80;;;;;;;3.28;100.00;94982.41;4897498;29;20051;-96
2023/01/09 07:50:14;;;;;;;3.23;0.70;;;;;;;3.23;100.00;94996.81;4930931;29;20064;-96
2023/01/09 07:52:44;;;;;;;2.27;0.60;;;;;;;3.26;100.00;95014.72;4897819;29;20044;-96
2023/01/09 07:58:57;;;;;;;1.90;0.70;;;;;;;3.31;100.00;95025.50;4929280;29;20042;-96
2023/01/09 08:05:13;;;;;;;1.87;0.60;;;;;;;3.37;100.00;95027.50;4941857;29;20027;-96
2023/01/09 08:11:26;;;;;;;3.93;0.57;;;;;;;3.50;100.00;95025.41;4929422;29;20068;-96
2023/01/09 08:13:52;;;;;;;5.63;0.70;;;;;;;3.63;100.00;95022.44;4897832;29;20539;-96
2023/01/09 08:16:18;;;;;;;1.73;0.50;;;;;;;3.67;100.00;95023.78;4895753;29;20035;-96
2023/01/09 08:18:44;;;;;;;2.53;0.40;;;;;;;3.63;100.00;95024.25;4895337;29;20119;-96
2023/01/09 08:21:10;;;;;;;3.47;0.50;;;;;;;3.69;100.00;95037.47;4896915;29;20065;-96
2023/01/09 08:27:23;;;;;;;2.53;0.60;;;;;;;3.71;100.00;95038.13;4928994;29;20047;-96
2023/01/09 08:29:49;;;;;;;2.97;0.60;;;;;;;3.73;100.00;95030.19;4897611;29;20028;-96
2023/01/09 08:36:03;;;;;;;4.53;1.30;;;;;;;3.78;100.00;95025.34;4924823;29;20047;-96
2023/01/09 08:38:28;;;;;;;6.13;0.90;;;;;;;3.83;100.00;95017.13;4896266;29;20055;-93
2023/01/09 08:51:12;;;;;;;2.57;0.70;;;;;;;4.17;100.00;95005.06;4929579;29;20046;-96
2023/01/09 08:53:38;;;;;;;3.60;0.80;;;;;;;4.33;100.00;94986.19;4902690;29;20135;-96
2023/01/09 08:59:51;;;;;;;3.23;1.23;;;;;;;4.20;100.00;94983.16;4939366;29;20072;-96
2023/01/09 09:02:17;;;;;;;3.10;0.70;;;;;;;4.32;100.00;94981.09;4919228;29;20040;-96
2023/01/09 09:08:30;;;;;;;3.50;0.50;;;;;;;4.33;100.00;94975.78;4934282;29;20043;-96
2023/01/09 09:21:15;;;;;;;6.00;1.50;;;;;;;4.28;100.00;94970.19;4929347;29;20114;-96
2023/01/09 09:23:41;;;;;;;2.70;0.77;;;;;;;4.28;100.00;94974.59;4906696;29;20036;-96
2023/01/09 09:26:07;;;;;;;3.67;0.77;;;;;;;4.23;100.00;94960.25;4890709;29;20039;-95
2023/01/09 09:28:32;;;;;;;1.60;0.50;;;;;;;4.21;100.00;94962.16;4890824;29;20036;-96
2023/01/09 09:30:58;;;;;;;5.27;0.77;;;;;;;4.23;100.00;94964.63;4906925;29;20072;-96
2023/01/09 09:33:24;;;;;;;2.03;0.70;;;;;;;4.18;100.00;94961.66;4891677;29;20045;-91
2023/01/09 09:35:50;;;;;;;5.63;1.27;;;;;;;4.16;100.00;94961.00;4907758;29;20044;-96
2023/01/09 09:48:53;;;;;;;3.43;0.70;;;;;;;4.11;100.00;94997.06;4948769;29;20046;-95
2023/01/09 09:51:41;;;;;;;2.03;0.80;;;;;;;4.16;100.00;95000.84;4923383;28;20047;-95
2023/01/09 09:57:57;;;;;;;4.40;1.30;;;;;;;4.18;100.00;95000.69;4940554;29;20063;-94
2023/01/09 10:00:23;;;;;;;6.87;1.20;;;;;;;4.11;100.00;94997.06;4923870;29;20050;-94
2023/01/09 10:03:20;;;;;;;8.33;2.50;;;;;;;4.22;100.00;94986.41;4908203;29;20099;-95
2023/01/09 10:05:49;;;;;;;2.77;1.00;;;;;;;4.23;100.00;94994.06;4908241;29;20039;-95
2023/01/09 10:16:34;;;;;;;5.53;1.20;;;;;;;4.93;100.00;94993.22;4947383;29;20111;-91
2023/01/09 10:19:35;;;;;;;4.10;0.77;;;;;;;5.20;100.00;94985.22;4927855;29;20044;-94
2023/01/09 10:26:23;;;;;;;4.20;0.93;;;;;;;4.88;100.00;94979.84;4941959;29;20067;-94
2023/01/09 10:33:02;;;;;;;3.03;0.70;;;;;;;4.90;100.00;94986.53;4946171;29;20042;-94
2023/01/09 10:35:42;;;;;;;3.60;0.57;;;;;;;4.90;100.00;94983.94;4927536;29;20036;-94
2023/01/09 10:38:12;;;;;;;3.20;0.83;;;;;;;4.88;100.00;95004.09;4911823;29;20064;-94
2023/01/09 10:40:48;;;;;;;5.90;1.43;;;;;;;4.92;100.00;95000.22;4911981;29;20043;-95
2023/01/09 10:43:43;;;;;;;5.03;1.03;;;;;;;4.90;100.00;94998.75;4916094;29;20046;-95
2023/01/09 10:49:57;;;;;;;4.07;0.90;;;;;;;4.89;100.00;94997.91;4943750;29;20046;-94
2023/01/09 10:52:37;;;;;;;4.80;0.90;;;;;;;4.99;100.00;94989.16;4911408;29;20490;-94
2023/01/09 10:55:35;;;;;;;3.67;1.00;;;;;;;5.03;100.00;94982.66;4903399;29;20041;-95
2023/01/09 10:58:08;;;;;;;4.73;1.27;;;;;;;5.01;100.00;94982.03;4873656;29;20169;-95
2023/01/09 11:04:36;;;;;;;4.50;0.90;;;;;;;5.04;100.00;94974.72;4906711;29;20447;-94
2023/01/09 11:07:11;;;;;;;4.63;0.60;;;;;;;5.15;100.00;94973.63;4874395;29;20040;-95
2023/01/09 11:10:00;;;;;;;4.17;0.90;;;;;;;5.27;100.00;94961.13;4873546;29;20064;-95
2023/01/09 11:16:18;;;;;;;3.93;1.00;;;;;;;5.40;100.00;94967.53;4910396;29;20055;-95
2023/01/09 11:19:02;;;;;;;2.43;0.60;;;;;;;5.36;100.00;94963.56;4881469;29;20079;-95
2023/01/09 11:21:40;;;;;;;3.67;1.00;;;;;;;5.40;100.00;94961.50;4881528;29;20083;-95
2023/01/09 11:24:19;;;;;;;3.00;0.70;;;;;;;5.40;100.00;94951.06;4880902;29;20076;-95
2023/01/09 11:26:47;;;;;;;4.10;0.87;;;;;;;5.42;100.00;94955.13;4887341;29;20051;-94
2023/01/09 11:29:15;;;;;;;4.47;1.30;;;;;;;5.54;100.00;94949.63;4904618;29;20036;-91
2023/01/09 11:31:53;;;;;;;5.30;1.30;;;;;;;5.55;100.00;94951.25;4912613;29;20040;-95
2023/01/09 11:34:35;;;;;;;6.27;1.73;;;;;;;5.70;100.00;94952.28;4900624;29;20063;-93
2023/01/09 11:37:07;;;;;;;4.13;1.07;;;;;;;5.76;100.00;94961.22;4916327;29;20031;-94
2023/01/09 11:39:40;;;;;;;;;;;;;;;5.72;100.00;94958.13;4893261;29;20048;-93
2023/01/09 11:42:18;;;;;;;4.13;0.90;;;;;;;5.86;100.00;94962.72;4882888;29;19919;-95
2023/01/09 11:44:44;;;;;;;5.40;0.90;;;;;;;6.18;100.00;94968.97;4881068;29;20035;-94
2023/01/09 11:47:37;;;;;;;5.57;1.40;;;;;;;6.51;100.00;94961.94;4895261;29;20032;-94
2023/01/09 11:50:43;;;;;;;6.20;1.60;;;;;;;6.51;100.00;94968.97;4903925;29;20052;-92
2023/01/09 11:53:17;;;;;;;8.00;1.40;;;;;;;6.48;100.00;94972.72;4901648;29;20033;-92
2023/01/09 11:55:45;;;;;;;7.77;1.20;;;;;;;6.57;100.00;94971.72;4885965;29;20181;-90
2023/01/09 11:58:17;;;;;;;8.00;1.17;;;;;;;6.21;100.00;94971.25;4890403;29;20045;-92
2023/01/09 12:01:21;;;;;;;3.87;0.67;;;;;;;6.08;100.00;94971.75;4894820;29;20063;-90
2023/01/09 12:04:22;;;;;;;4.00;1.25;;;;;;;6.05;100.00;94989.53;4855456;29;20091;-91
2023/01/09 12:07:29;;;;;;;4.73;0.87;;;;;;;5.96;100.00;94982.66;4870581;29;20044;-93
2023/01/09 12:09:58;;;;;;;5.20;1.00;;;;;;;5.96;100.00;94980.84;4872686;29;20052;-92
2023/01/09 12:12:59;;;;;;;7.23;1.53;;;;;;;5.93;100.00;94990.81;4883781;29;20135;-91
2023/01/09 12:15:37;;;;;;;4.93;0.97;;;;;;;5.97;100.00;94989.50;4888275;29;20152;-88
2023/01/09 12:18:23;;;;;;;5.43;1.20;;;;;;;5.97;100.00;94979.06;4882781;29;20035;-89
2023/01/09 12:21:32;;;;;;;9.13;2.47;;;;;;;6.11;100.00;94981.88;4884900;29;20078;-91
2023/01/09 12:24:48;;;;;;;4.93;1.30;;;;;;;6.23;100.00;94990.16;4884047;29;20044;-92
2023/01/09 12:28:12;;;;;;;;;;;;;;;6.26;100.00;94978.59;4901360;29;20060;-92
2023/01/09 12:34:11;;;;;;;5.95;1.20;;;;;;;6.57;100.00;94965.66;4906393;29;19922;-92
2023/01/09 12:37:43;;;;;;;6.83;1.30;;;;;;;7.20;100.00;94959.63;4867931;29;20194;-92
2023/01/09 12:40:22;;;;;;;4.93;0.83;;;;;;;7.09;100.00;94954.78;4879675;29;20064;-92
2023/01/09 12:43:22;;;;;;;5.43;1.83;;;;;;;7.03;100.00;94963.28;4905654;29;20054;-91
2023/01/09 12:45:58;;;;;;;4.37;1.27;;;;;;;6.91;100.00;94964.63;4885933;29;20123;-92
2023/01/09 12:49:10;;;;;;;5.87;1.13;;;;;;;6.66;100.00;94961.25;4886170;29;20041;-91
2023/01/09 12:52:16;;;;;;;9.80;1.83;;;;;;;6.57;100.00;94965.66;4883099;29;20121;-90
2023/01/09 12:54:50;;;;;;;6.30;1.50;;;;;;;6.58;100.00;94969.94;4897185;29;20096;-90
2023/01/09 12:57:41;;;;;;;6.13;1.10;;;;;;;6.56;100.00;94969.28;4885569;29;20118;-91
2023/01/09 13:00:14;;;;;;;6.63;1.57;;;;;;;6.55;100.00;94972.88;4898254;29;20067;-91
2023/01/09 13:02:48;;;;;;;3.33;0.85;;;;;;;6.34;100.00;94971.59;4903537;29;20040;-91
2023/01/09 13:05:32;;;;;;;5.93;1.98;;;;;;;6.31;100.00;94963.28;4877332;29;20044;-91
2023/01/09 13:08:23;;;;;;;4.70;1.10;;;;;;;6.33;100.00;94966.50;4872454;29;20033;-90
2023/01/09 13:11:19;;;;;;;8.00;2.20;;;;;;;6.73;100.00;94965.63;4882587;29;20103;-91
2023/01/09 13:14:52;;;;;;;6.90;1.00;;;;;;;6.54;100.00;94966.84;4900163;29;20056;-91
2023/01/09 13:17:42;;;;;;;4.80;0.90;;;;;;;6.40;100.00;94964.88;4847001;29;20092;-91
2023/01/09 13:20:24;;;;;;;7.00;1.20;;;;;;;6.36;100.00;94966.19;4900602;29;20122;-91
2023/01/09 13:22:53;;;;;;;5.63;1.17;;;;;;;6.46;100.00;94968.63;4885384;29;20312;-90
2023/01/09 13:25:36;;;;;;;5.83;1.57;;;;;;;6.41;100.00;94965.72;4906623;29;20070;-90
2023/01/09 13:28:39;;;;;;;5.93;1.40;;;;;;;6.36;100.00;94969.59;4901770;29;20047;-91
2023/01/09 13:31:35;;;;;;;7.20;1.47;;;;;;;6.31;100.00;94971.91;4889474;29;20521;-91
2023/01/09 13:34:02;;;;;;;5.47;1.37;;;;;;;6.27;100.00;94983.66;4904865;29;20043;-90
2023/01/09 13:36:31;;;;;;;6.07;1.33;;;;;;;6.16;100.00;94978.75;4897145;29;20622;-90
2023/01/09 13:38:59;;;;;;;4.27;1.00;;;;;;;6.05;100.00;94976.47;4889055;29;20829;-90
2023/01/09 13:44:28;;;;;;;5.60;1.10;;;;;;;5.81;100.00;94983.25;4901505;29;20087;-90
2023/01/09 13:47:01;;;;;;;5.00;1.30;;;;;;;5.80;100.00;94994.69;4893033;29;20031;-90
2023/01/09 13:49:45;;;;;;;6.70;1.33;;;;;;;5.73;100.00;94998.06;4899645;29;20510;-90
2023/01/09 13:52:36;;;;;;;8.70;2.03;;;;;;;5.58;100.00;94990.88;4898958;29;20052;-91
2023/01/09 13:55:11;;;;;;;4.97;1.80;;;;;;;5.58;100.00;95005.72;4884488;29;20060;-91
2023/01/09 13:58:07;;;;;;;5.80;1.07;;;;;;;5.52;100.00;94994.09;4913043;29;20092;-90
2023/01/09 14:00:45;;;;;;;4.60;1.30;;;;;;;5.42;100.00;95012.50;4884692;29;20110;-90
2023/01/09 14:03:31;;;;;;;8.57;3.23;;;;;;;5.41;100.00;95036.13;4889748;29;20512;-90
2023/01/09 14:05:57;;;;;;;9.53;1.90;;;;;;;5.09;100.00;95057.63;4879538;29;20040;-90
2023/01/09 14:08:26;;;;;;;7.10;1.60;;;;;;;4.58;100.00;95065.25;4891653;29;20422;-90
2023/01/09 14:11:00;;;;;;;6.33;2.30;;;;;;;4.48;100.00;95049.72;4893665;29;20146;-90
2023/01/09 14:13:36;;;;;;;5.73;1.50;;;;;;;4.45;100.00;95057.84;4896476;29;20063;-90
2023/01/09 14:16:09;;;;;;;3.90;1.07;;;;;;;4.47;100.00;95083.72;4900957;29;20081;-90
2023/01/09 14:18:44;;;;;;;4.45;0.80;;;;;;;4.30;100.00;95077.56;4905092;29;20064;-90
2023/01/09 14:21:11;;;;;;;7.97;2.90;;;;;;;4.36;100.00;95092.59;4906497;29;20055;-90
2023/01/09 14:24:00;;;;;;;6.47;1.00;;;;;;;4.34;100.00;95101.50;4897075;29;20044;-89
2023/01/09 14:26:44;;;;;;;5.23;2.40;;;;;;;4.30;100.00;95102.78;4884407;29;20407;-89
2023/01/09 14:29:28;;;;;;;5.65;2.53;;;;;;;4.37;100.00;95109.84;4893378;29;20047;-89
2023/01/09 14:32:21;;;;;;;11.17;4.83;;;;;;;4.34;100.00;95102.31;4881218;29;20403;-89
2023/01/09 14:34:57;;;;;;;8.95;3.30;;;;;;;4.35;100.00;95105.75;4889072;29;20063;-90
2023/01/09 14:37:30;;;;;;;8.77;3.10;;;;;;;4.35;100.00;95114.34;4910222;29;20038;-90
2023/01/09 14:39:57;;;;;;;10.48;3.95;;;;;;;4.30;100.00;95119.22;4911393;29;20116;-90
2023/01/09 14:42:28;;;;;;;7.20;2.20;;;;;;;4.29;100.00;95129.75;4890120;29;20060;-91
2023/01/09 14:45:18;;;;;;;8.73;2.10;;;;;;;4.21;100.00;95148.72;4917563;29;20395;-90
2023/01/09 14:48:01;;;;;;;5.57;2.33;;;;;;;4.00;100.00;95148.97;4906729;29;20040;-90
2023/01/09 14:50:54;;;;;;;2.17;0.93;;;;;;;3.76;100.00;95154.72;4896568;29;20068;-91
2023/01/09 14:53:42;;;;;;;6.43;2.53;;;;;;;3.89;100.00;95152.59;4909292;29;20031;-91
2023/01/09 15:00:47;;;;;;;22.43;14.10;;;;;;;4.33;100.00;95154.53;4862469;29;20556;-91
2023/01/09 15:03:13;;;;;;;4.20;1.77;;;;;;;3.96;100.00;95164.06;4905510;28;20027;-91
2023/01/09 15:05:39;;;;;;;6.00;1.83;;;;;;;4.04;100.00;95167.72;4910380;29;20043;-91
2023/01/09 15:08:05;;;;;;;4.43;1.90;;;;;;;4.04;100.00;95163.31;4901518;29;20037;-91
2023/01/09 15:10:36;;;;;;;3.50;1.30;;;;;;;3.91;100.00;95175.84;4899334;29;20048;-92
2023/01/09 15:13:10;;;;;;;3.97;1.20;;;;;;;4.00;100.00;95175.81;4891020;29;20048;-91
2023/01/09 15:15:47;;;;;;;2.70;1.23;;;;;;;3.88;100.00;95183.94;4889169;29;20048;-92
2023/01/09 15:18:24;;;;;;;2.07;0.70;;;;;;;3.95;100.00;95178.00;4918397;29;20032;-93
2023/01/09 15:20:56;;;;;;;5.00;1.47;;;;;;;3.98;100.00;95208.94;4895181;29;20073;-91
2023/01/09 15:24:11;;;;;;;9.13;3.00;;;;;;;3.91;100.00;95233.88;4905843;29;20039;-92
2023/01/09 15:27:27;;;;;;;3.83;1.50;;;;;;;3.54;100.00;95216.50;4900219;29;20036;-92
2023/01/09 15:35:18;;;;;;;4.10;1.60;;;;;;;3.15;100.00;95227.91;4920164;29;20078;-92
2023/01/09 15:43:19;;;;;;;7.33;4.20;;;;;;;3.24;100.00;95224.50;4885362;29;20075;-92
2023/01/09 15:46:56;;;;;;;4.80;1.23;;;;;;;3.06;100.00;95220.00;4802822;29;20138;-93
2023/01/09 16:14:33;;;;;;;5.63;2.30;;;;;;;2.81;100.00;95234.34;4768214;30;20081;-92
2023/01/09 16:18:02;;;;;;;5.60;2.93;;;;;;;2.73;100.00;95239.41;4748859;30;20589;-92
2023/01/09 16:21:24;;;;;;;6.67;3.40;;;;;;;2.70;100.00;95241.47;4738767;30;20101;-92
2023/01/09 16:32:41;;;;;;;15.10;9.77;;;;;;;2.55;100.00;95273.00;4693019;30;20087;-92
2023/01/09 17:34:12;;;;;;;4.43;2.00;;;;;;;2.44;100.00;95343.16;4920455;29;20043;-90
2023/01/09 17:37:11;;;;;;;4.00;1.47;;;;;;;2.33;100.00;95341.47;4886798;29;20075;-92
2023/01/09 17:40:22;;;;;;;5.37;2.60;;;;;;;2.33;100.00;95341.47;4858144;29;20110;-93
2023/01/09 17:58:29;;;;;;;4.67;2.20;;;;;;;2.22;100.00;95357.16;4896080;29;20056;-93
2023/01/09 18:01:52;;;;;;;5.53;2.67;;;;;;;2.22;100.00;95359.75;4883839;29;20075;-90
2023/01/09 18:04:17;;;;;;;7.77;2.70;;;;;;;2.19;100.00;95367.78;4898321;29;20093;-93
2023/01/09 18:06:45;;;;;;;7.93;3.30;;;;;;;2.27;100.00;95367.13;4884361;29;20040;-93
2023/01/09 18:09:38;;;;;;;6.43;3.13;;;;;;;2.31;100.00;95363.31;4905708;29;20028;-93
2023/01/09 18:12:11;;;;;;;5.25;2.60;;;;;;;2.33;100.00;95370.03;4895379;29;20487;-96
2023/01/09 18:15:24;;;;;;;6.10;2.33;;;;;;;2.32;100.00;95365.78;4878637;29;20053;-94
2023/01/09 18:17:56;;;;;;;3.60;1.65;;;;;;;2.36;100.00;95368.94;4891435;29;20067;-94
2023/01/09 18:20:23;;;;;;;3.40;1.50;;;;;;;2.38;100.00;95359.25;4888488;29;20028;-92
2023/01/09 18:23:01;;;;;;;13.73;4.47;;;;;;;2.35;100.00;95377.69;4883925;29;20031;-93
2023/01/09 18:26:20;;;;;;;;;;;;;;;;;;;;;
2023/01/09 18:29:01;;;;;;;;;;;;;;;;;;;;;
2023/01/09 18:31:52;;;;;;;4.27;1.80;;;;;;;2.40;100.00;95395.44;4911658;29;20057;-91
2023/01/09 18:34:18;;;;;;;4.10;1.70;;;;;;;2.43;100.00;95405.56;4897458;29;20040;-90
2023/01/09 18:36:49;;;;;;;6.23;1.90;;;;;;;2.44;100.00;95412.41;4907308;29;20036;-94
2023/01/09 18:39:50;;;;;;;5.47;2.50;;;;;;;2.49;100.00;95413.66;4891489;29;20032;-96
2023/01/09 18:42:16;;;;;;;4.07;1.57;;;;;;;2.48;100.00;95414.63;4897585;29;20079;-90
2023/01/09 18:44:42;;;;;;;3.97;1.73;;;;;;;2.47;100.00;95412.16;4875813;29;20043;-90
2023/01/09 18:47:08;;;;;;;2.97;1.47;;;;;;;2.49;100.00;95416.25;4902234;29;20127;-91
2023/01/09 18:49:34;;;;;;;8.80;3.83;;;;;;;2.53;100.00;95422.81;4889861;29;20437;-90
2023/01/09 18:52:00;;;;;;;6.40;3.03;;;;;;;2.55;100.00;95430.50;4885635;29;20044;-89
2023/01/09 18:54:26;;;;;;;6.40;2.30;;;;;;;2.55;100.00;95431.31;4911132;29;20048;-89
2023/01/09 18:56:51;;;;;;;7.13;1.77;;;;;;;2.58;100.00;95430.22;4888883;29;20191;-89
2023/01/09 18:59:17;;;;;;;8.57;2.77;;;;;;;2.58;100.00;95441.44;4887119;29;20032;-90
2023/01/09 19:01:43;;;;;;;5.83;2.60;;;;;;;2.59;100.00;95437.06;4885048;29;20052;-89
2023/01/09 19:04:09;;;;;;;9.03;3.33;;;;;;;2.55;100.00;95439.09;4902223;29;20103;-92
2023/01/09 19:06:39;;;;;;;6.00;2.03;;;;;;;2.58;100.00;95449.22;4908259;29;20040;-90
2023/01/09 19:09:15;;;;;;;5.50;2.57;;;;;;;2.57;100.00;95459.72;4910805;29;20479;-91
